Time;durP1;ratioP1;P1;durP2;ratioP2;P2;SDS_P1;SDS_P2;PMS_P1;PMS_P2;Temp;Humidity;BMP_temperature;BMP_pressure;BME280_temperature;BME280_humidity;BME280_pressure;Samples;Min_cycle;Max_cycle;Signal;HPM_P1;HPM_P2
2023/06/14 00:04:01;;;;;;;;;;;8.00;99.90;;;;;;8356711;28;20356;-81
2023/06/14 00:08:03;;;;;;;;;;;7.90;99.90;;;;;;8333383;28;20336;-79
2023/06/14 00:12:03;;;;;;;;;;;7.90;99.90;;;;;;8347878;28;20004;-80
2023/06/14 00:16:04;;;;;;;;;;;7.90;99.90;;;;;;8338895;28;19921;-81
2023/06/14 00:20:07;;;;;;;;;;;7.80;99.90;;;;;;8358022;28;19909;-80
2023/06/14 00:24:08;;;;;;;;;;;7.70;99.90;;;;;;8362436;28;19916;-78
2023/06/14 00:28:08;;;;;;;;;;;7.70;99.90;;;;;;8351845;28;19920;-79
2023/06/14 00:32:09;;;;;;;;;;;7.70;99.90;;;;;;8335315;28;19912;-80
2023/06/14 00:36:09;;;;;;;;;;;7.80;99.90;;;;;;8334834;28;19908;-79
2023/06/14 00:40:10;;;;;;;;;;;7.70;99.90;;;;;;8356875;28;19959;-80
2023/06/14 00:44:11;;;;;;;;;;;7.50;99.90;;;;;;8346070;28;19956;-79
2023/06/14 00:48:13;;;;;;;;;;;7.30;99.90;;;;;;8342612;28;19919;-80
2023/06/14 00:52:14;;;;;;;;;;;7.10;99.90;;;;;;8339454;28;19928;-79
2023/06/14 00:56:15;;;;;;;;;;;7.10;99.90;;;;;;8372023;28;19908;-79
2023/06/14 01:00:16;;;;;;;;;;;7.00;99.90;;;;;;8341722;28;19970;-79
2023/06/14 01:04:16;;;;;;;;;;;7.00;99.90;;;;;;8324486;28;19913;-79
2023/06/14 01:08:26;;;;;;;;;;;6.80;99.90;;;;;;8338712;28;19924;-80
2023/06/14 01:12:38;;;;;;;;;;;6.80;99.90;;;;;;8351401;28;20454;-81
2023/06/14 01:16:39;;;;;;;;;;;6.50;99.90;;;;;;8330868;28;20026;-80
2023/06/14 01:20:40;;;;;;;;;;;6.50;99.90;;;;;;8339471;28;20060;-78
2023/06/14 01:24:44;;;;;;;;;;;6.30;99.90;;;;;;8327619;28;19913;-80
2023/06/14 01:28:48;;;;;;;;;;;6.20;99.90;;;;;;8348635;28;19913;-80
2023/06/14 01:32:50;;;;;;;;;;;6.10;99.90;;;;;;8330974;28;20106;-80
2023/06/14 01:36:51;;;;;;;;;;;6.00;99.90;;;;;;8336594;28;20011;-80
2023/06/14 01:40:53;;;;;;;;;;;5.80;99.90;;;;;;8335744;28;19912;-80
2023/06/14 01:44:54;;;;;;;;;;;5.90;99.90;;;;;;8329662;28;19970;-79
2023/06/14 01:48:55;;;;;;;;;;;5.90;99.90;;;;;;8329673;28;19921;-80
2023/06/14 01:52:55;;;;;;;;;;;5.90;99.90;;;;;;8338280;28;19920;-80
2023/06/14 01:56:56;;;;;;;;;;;6.10;99.90;;;;;;8338640;28;19913;-80
2023/06/14 02:00:57;;;;;;;;;;;5.90;99.90;;;;;;8343861;28;19909;-79
2023/06/14 02:04:58;;;;;;;;;;;6.00;99.90;;;;;;8326621;28;19909;-81
2023/06/14 02:08:58;;;;;;;;;;;6.10;99.90;;;;;;8347102;28;19966;-80
2023/06/14 02:12:59;;;;;;;;;;;6.10;99.90;;;;;;8344766;28;20501;-80
2023/06/14 02:17:00;;;;;;;;;;;5.80;99.90;;;;;;8358111;28;19956;-80
2023/06/14 02:21:01;;;;;;;;;;;5.70;99.90;;;;;;8338432;28;20289;-80
2023/06/14 02:25:01;;;;;;;;;;;5.60;99.90;;;;;;8348091;28;19951;-79
2023/06/14 02:29:02;;;;;;;;;;;6.40;99.90;;;;;;8329567;28;20101;-80
2023/06/14 02:33:02;;;;;;;;;;;5.40;99.90;;;;;;8323944;28;20611;-79
2023/06/14 02:37:06;;;;;;;;;;;5.20;99.90;;;;;;8359423;28;19996;-80
2023/06/14 02:41:07;;;;;;;;;;;5.40;99.90;;;;;;8345718;28;19909;-81
2023/06/14 02:45:08;;;;;;;;;;;5.40;99.90;;;;;;8325499;28;20332;-79
2023/06/14 02:49:08;;;;;;;;;;;5.50;99.90;;;;;;8323576;28;20273;-78
2023/06/14 02:53:09;;;;;;;;;;;5.60;99.90;;;;;;8317597;28;19917;-80
2023/06/14 02:57:10;;;;;;;;;;;5.30;99.90;;;;;;8333877;28;19915;-80
2023/06/14 03:01:13;;;;;;;;;;;4.90;99.90;;;;;;8333437;28;19908;-80
2023/06/14 03:05:14;;;;;;;;;;;5.20;99.90;;;;;;8366601;28;19919;-79
2023/06/14 03:09:14;;;;;;;;;;;5.20;99.90;;;;;;8362155;28;20381;-79
2023/06/14 03:13:21;;;;;;;;;;;5.10;99.90;;;;;;8330913;28;19913;-80
2023/06/14 03:17:22;;;;;;;;;;;4.90;99.90;;;;;;8342868;28;19909;-80
2023/06/14 03:21:22;;;;;;;;;;;5.10;99.90;;;;;;8336505;28;19913;-79
2023/06/14 03:25:23;;;;;;;;;;;5.20;99.90;;;;;;8340527;28;19917;-80
2023/06/14 03:29:23;;;;;;;;;;;5.30;99.90;;;;;;8344731;28;19909;-78
2023/06/14 03:33:25;;;;;;;;;;;5.50;99.90;;;;;;8354292;28;19994;-79
2023/06/14 03:37:25;;;;;;;;;;;5.40;99.90;;;;;;8335043;28;19909;-80
2023/06/14 03:41:26;;;;;;;;;;;5.50;99.90;;;;;;8341840;28;19962;-80
2023/06/14 03:45:26;;;;;;;;;;;5.40;99.90;;;;;;8330817;28;19913;-80
2023/06/14 03:49:27;;;;;;;;;;;5.70;99.90;;;;;;8335304;28;19910;-79
2023/06/14 03:53:29;;;;;;;;;;;5.90;99.90;;;;;;8336748;28;19925;-82
2023/06/14 03:57:29;;;;;;;;;;;6.10;99.90;;;;;;8343009;28;19917;-79
2023/06/14 04:01:31;;;;;;;;;;;6.50;99.90;;;;;;8364854;28;19913;-79
2023/06/14 04:05:31;;;;;;;;;;;7.00;99.90;;;;;;8337553;28;19909;-80
2023/06/14 04:09:32;;;;;;;;;;;7.60;99.90;;;;;;8366918;28;20320;-80
2023/06/14 04:13:34;;;;;;;;;;;8.60;99.90;;;;;;8338387;28;20181;-80
2023/06/14 04:17:36;;;;;;;;;;;9.10;99.90;;;;;;8326081;28;19912;-80
2023/06/14 04:21:37;;;;;;;;;;;10.00;99.90;;;;;;8335469;28;19944;-80
2023/06/14 04:25:40;;;;;;;;;;;10.90;99.90;;;;;;8327600;28;19924;-81
2023/06/14 04:29:43;;;;;;;;;;;11.30;99.90;;;;;;8348616;28;20013;-80
2023/06/14 04:33:44;;;;;;;;;;;12.00;99.90;;;;;;8330126;28;19983;-80
2023/06/14 04:37:45;;;;;;;;;;;12.40;99.90;;;;;;8327124;28;20003;-79
2023/06/14 04:41:46;;;;;;;;;;;12.90;99.90;;;;;;8349431;28;20404;-80
2023/06/14 04:45:47;;;;;;;;;;;13.50;99.90;;;;;;8357810;28;19917;-80
2023/06/14 04:49:47;;;;;;;;;;;14.30;99.90;;;;;;8349891;28;20393;-79
2023/06/14 04:53:49;;;;;;;;;;;15.00;99.90;;;;;;8338130;28;20011;-81
2023/06/14 04:57:52;;;;;;;;;;;15.00;99.90;;;;;;8335626;28;20953;-82
2023/06/14 05:01:54;;;;;;;;;;;15.40;99.90;;;;;;8333855;28;19979;-80
2023/06/14 05:05:54;;;;;;;;;;;15.10;99.90;;;;;;8323705;28;19913;-81
2023/06/14 05:09:55;;;;;;;;;;;16.10;99.90;;;;;;8342814;28;20312;-81
2023/06/14 05:13:58;;;;;;;;;;;16.00;99.90;;;;;;8337010;28;20431;-81
2023/06/14 05:17:59;;;;;;;;;;;15.80;99.90;;;;;;8346264;28;19913;-81
2023/06/14 05:21:59;;;;;;;;;;;16.20;99.90;;;;;;8331799;28;19917;-82
2023/06/14 05:26:02;;;;;;;;;;;16.30;99.90;;;;;;8329904;28;21102;-81
2023/06/14 05:30:03;;;;;;;;;;;17.30;99.90;;;;;;8331982;28;19917;-81
2023/06/14 05:34:04;;;;;;;;;;;18.10;99.90;;;;;;8338854;28;19917;-80
2023/06/14 05:38:05;;;;;;;;;;;18.40;99.90;;;;;;8326228;28;20524;-81
2023/06/14 05:42:06;;;;;;;;;;;18.60;99.90;;;;;;8316495;28;19908;-82
2023/06/14 05:46:06;;;;;;;;;;;19.00;99.90;;;;;;8335513;28;19909;-82
2023/06/14 05:50:07;;;;;;;;;;;19.60;99.90;;;;;;8334945;28;20011;-82
2023/06/14 05:54:07;;;;;;;;;;;20.00;99.90;;;;;;8327751;28;19928;-81
2023/06/14 05:58:08;;;;;;;;;;;20.20;99.90;;;;;;8353579;28;19916;-81
2023/06/14 06:02:08;;;;;;;;;;;20.30;99.90;;;;;;8349693;28;20011;-81
2023/06/14 06:06:09;;;;;;;;;;;20.60;99.90;;;;;;8328518;28;19916;-81
2023/06/14 06:10:09;;;;;;;;;;;21.30;98.20;;;;;;8327287;28;20436;-81
2023/06/14 06:14:10;;;;;;;;;;;21.20;99.10;;;;;;8348788;28;19917;-79
2023/06/14 06:18:10;;;;;;;;;;;21.10;97.50;;;;;;8335662;28;19916;-81
2023/06/14 06:22:11;;;;;;;;;;;21.00;97.20;;;;;;8329359;28;19913;-82
2023/06/14 06:26:11;;;;;;;;;;;20.70;96.50;;;;;;8322959;28;19970;-81
2023/06/14 06:30:12;;;;;;;;;;;20.90;94.70;;;;;;8347878;28;19913;-83
2023/06/14 06:34:12;;;;;;;;;;;21.30;95.80;;;;;;8338037;28;19912;-81
2023/06/14 06:38:13;;;;;;;;;;;21.70;95.60;;;;;;8337510;28;20008;-81
2023/06/14 06:42:13;;;;;;;;;;;22.20;94.00;;;;;;8335548;28;19936;-80
2023/06/14 06:46:14;;;;;;;;;;;22.70;92.20;;;;;;8335539;28;19932;-81
2023/06/14 06:50:15;;;;;;;;;;;23.10;89.30;;;;;;8354159;28;19955;-80
2023/06/14 06:54:15;;;;;;;;;;;23.30;88.70;;;;;;8347701;28;19916;-81
2023/06/14 06:58:16;;;;;;;;;;;23.10;88.90;;;;;;8342228;28;19935;-81
2023/06/14 07:02:16;;;;;;;;;;;23.40;86.10;;;;;;8351746;28;19920;-82
2023/06/14 07:06:18;;;;;;;;;;;23.30;85.80;;;;;;8333848;28;19921;-80
2023/06/14 07:10:19;;;;;;;;;;;23.60;82.70;;;;;;8337142;28;20377;-81
2023/06/14 07:14:21;;;;;;;;;;;23.70;80.50;;;;;;8329753;28;20216;-81
2023/06/14 07:18:22;;;;;;;;;;;23.60;78.80;;;;;;8344436;28;19966;-81
2023/06/14 07:22:22;;;;;;;;;;;23.80;78.20;;;;;;8340560;28;19912;-81
2023/06/14 07:26:23;;;;;;;;;;;23.70;75.80;;;;;;8327761;28;19913;-81
2023/06/14 07:30:25;;;;;;;;;;;23.90;74.40;;;;;;8334570;28;19943;-81
2023/06/14 07:34:27;;;;;;;;;;;24.10;74.10;;;;;;8340444;28;20299;-82
2023/06/14 07:38:27;;;;;;;;;;;24.60;74.10;;;;;;8325781;28;20007;-79
2023/06/14 07:42:28;;;;;;;;;;;24.80;70.50;;;;;;8333997;28;19913;-78
2023/06/14 07:46:28;;;;;;;;;;;24.70;66.60;;;;;;8355604;28;19966;-78
2023/06/14 07:50:28;;;;;;;;;;;24.60;71.70;;;;;;8336131;28;19990;-78
2023/06/14 07:54:30;;;;;;;;;;;24.90;65.40;;;;;;8336820;28;20281;-79
2023/06/14 07:58:30;;;;;;;;;;;24.90;64.90;;;;;;8333162;28;19999;-78
2023/06/14 08:02:31;;;;;;;;;;;24.80;66.20;;;;;;8337766;28;20293;-78
2023/06/14 08:06:31;;;;;;;;;;;24.30;66.40;;;;;;8325479;28;19916;-78
2023/06/14 08:10:31;;;;;;;;;;;24.50;66.60;;;;;;8354792;28;19909;-79
2023/06/14 08:14:32;;;;;;;;;;;24.80;63.80;;;;;;8333524;28;19913;-78
2023/06/14 08:18:32;;;;;;;;;;;25.90;60.60;;;;;;8331880;28;19912;-78
2023/06/14 08:22:34;;;;;;;;;;;25.60;60.50;;;;;;8336857;28;19915;-79
2023/06/14 08:26:36;;;;;;;;;;;25.10;59.90;;;;;;8324353;28;19967;-78
2023/06/14 08:30:37;;;;;;;;;;;24.90;65.70;;;;;;8337102;28;20255;-78
2023/06/14 08:34:37;;;;;;;;;;;24.60;64.50;;;;;;8353665;28;19960;-79
2023/06/14 08:38:38;;;;;;;;;;;25.20;63.10;;;;;;8354444;28;19913;-79
2023/06/14 08:42:40;;;;;;;;;;;25.40;63.50;;;;;;8344480;28;20281;-78
2023/06/14 08:46:41;;;;;;;;;;;24.90;61.80;;;;;;8356153;28;19909;-79
2023/06/14 08:50:43;;;;;;;;;;;25.10;59.50;;;;;;8349363;28;19920;-78
2023/06/14 08:54:44;;;;;;;;;;;24.80;61.60;;;;;;8343402;28;19920;-78
2023/06/14 08:58:47;;;;;;;;;;;25.00;61.90;;;;;;8336197;28;19979;-78
2023/06/14 09:02:48;;;;;;;;;;;24.60;63.10;;;;;;8338571;28;20354;-78
2023/06/14 09:06:52;;;;;;;;;;;24.30;67.70;;;;;;8348742;28;19913;-79
2023/06/14 09:10:53;;;;;;;;;;;24.40;63.30;;;;;;8334976;28;19916;-78
2023/06/14 09:14:53;;;;;;;;;;;24.70;60.70;;;;;;8329560;28;19916;-78
2023/06/14 09:18:54;;;;;;;;;;;25.40;57.40;;;;;;8324487;28;19916;-79
2023/06/14 09:22:55;;;;;;;;;;;25.80;59.60;;;;;;8321901;28;20036;-78
2023/06/14 09:26:57;;;;;;;;;;;25.10;60.70;;;;;;8332827;28;19916;-79
2023/06/14 09:30:57;;;;;;;;;;;25.30;59.70;;;;;;8328135;28;20003;-77
2023/06/14 09:34:58;;;;;;;;;;;25.10;61.10;;;;;;8341874;28;19913;-78
2023/06/14 09:39:00;;;;;;;;;;;24.90;60.60;;;;;;8333719;28;19909;-78
2023/06/14 09:43:01;;;;;;;;;;;25.50;60.50;;;;;;8353659;28;19913;-78
2023/06/14 09:47:02;;;;;;;;;;;25.10;57.80;;;;;;8357168;28;19909;-79
2023/06/14 09:51:03;;;;;;;;;;;25.30;63.30;;;;;;8338494;28;19924;-78
2023/06/14 09:55:10;;;;;;;;;;;25.60;59.40;;;;;;8349511;28;19925;-77
2023/06/14 09:59:12;;;;;;;;;;;25.30;58.00;;;;;;8334455;28;19971;-76
2023/06/14 10:03:13;;;;;;;;;;;23.80;61.90;;;;;;8335330;28;20007;-78
2023/06/14 10:07:18;;;;;;;;;;;23.80;67.30;;;;;;8341459;28;19913;-78
2023/06/14 10:11:19;;;;;;;;;;;24.90;60.30;;;;;;8340599;28;19971;-77
2023/06/14 10:15:23;;;;;;;;;;;25.10;58.50;;;;;;8325963;28;19913;-78
2023/06/14 10:19:37;;;;;;;;;;;25.20;59.40;;;;;;8348679;28;19921;-77
2023/06/14 10:23:44;;;;;;;;;;;25.00;59.90;;;;;;8350756;28;19939;-78
2023/06/14 10:27:45;;;;;;;;;;;24.30;60.50;;;;;;8315098;28;20377;-78
2023/06/14 10:31:47;;;;;;;;;;;24.20;63.10;;;;;;8322013;28;19920;-77
2023/06/14 10:35:48;;;;;;;;;;;24.60;59.00;;;;;;8346748;28;20381;-77
2023/06/14 10:39:49;;;;;;;;;;;24.70;61.30;;;;;;8348460;28;20046;-78
2023/06/14 10:43:49;;;;;;;;;;;25.40;56.50;;;;;;8330213;28;19912;-79
2023/06/14 10:47:52;;;;;;;;;;;25.80;55.90;;;;;;8333080;28;19968;-78
2023/06/14 10:51:52;;;;;;;;;;;27.10;58.20;;;;;;8349156;28;20002;-78
2023/06/14 10:55:53;;;;;;;;;;;27.30;54.30;;;;;;8331416;28;19955;-78
2023/06/14 10:59:54;;;;;;;;;;;26.90;52.50;;;;;;8332144;28;19947;-79
2023/06/14 11:03:56;;;;;;;;;;;27.00;50.90;;;;;;8331421;28;20381;-77
2023/06/14 11:08:02;;;;;;;;;;;27.80;54.30;;;;;;8331663;28;20051;-78
2023/06/14 11:12:03;;;;;;;;;;;27.70;49.90;;;;;;8326331;28;19927;-77
2023/06/14 11:16:10;;;;;;;;;;;27.40;50.00;;;;;;8333352;28;19913;-79
2023/06/14 11:20:15;;;;;;;;;;;26.50;51.00;;;;;;8333063;28;19963;-77
2023/06/14 11:24:16;;;;;;;;;;;26.20;53.80;;;;;;8346623;28;19928;-78
2023/06/14 11:28:19;;;;;;;;;;;27.10;49.00;;;;;;8333387;28;19917;-78
2023/06/14 11:32:19;;;;;;;;;;;27.20;50.90;;;;;;8358160;28;19934;-78
2023/06/14 11:36:20;;;;;;;;;;;27.60;50.10;;;;;;8339163;28;20392;-77
2023/06/14 11:40:23;;;;;;;;;;;26.40;51.00;;;;;;8324619;28;19947;-78
2023/06/14 11:44:23;;;;;;;;;;;26.20;52.70;;;;;;8338585;28;19916;-78
2023/06/14 11:48:35;;;;;;;;;;;26.70;50.60;;;;;;8359878;28;19924;-77
2023/06/14 11:52:36;;;;;;;;;;;27.20;50.80;;;;;;8350571;28;19978;-77
2023/06/14 11:56:37;;;;;;;;;;;27.50;51.00;;;;;;8327192;28;20004;-78
2023/06/14 12:00:37;;;;;;;;;;;27.50;53.80;;;;;;8351418;28;19917;-79
2023/06/14 12:04:40;;;;;;;;;;;28.90;48.30;;;;;;8333517;28;19916;-77
2023/06/14 12:08:42;;;;;;;;;;;29.10;49.90;;;;;;8323859;28;20026;-77
2023/06/14 12:16:46;;;;;;;;;;;25.80;52.20;;;;;;8415927;28;19928;-79
2023/06/14 12:20:50;;;;;;;;;;;28.20;51.20;;;;;;8390070;28;19909;-79
2023/06/14 12:24:51;;;;;;;;;;;29.10;46.50;;;;;;8413369;28;19920;-78
2023/06/14 12:28:52;;;;;;;;;;;30.70;44.80;;;;;;8402722;28;20290;-77
2023/06/14 12:32:55;;;;;;;;;;;30.50;44.60;;;;;;8402988;28;20346;-76
2023/06/14 12:36:57;;;;;;;;;;;29.00;46.90;;;;;;8359594;28;20697;-78
2023/06/14 12:40:57;;;;;;;;;;;30.00;48.00;;;;;;8371941;28;19969;-78
2023/06/14 12:44:58;;;;;;;;;;;27.70;48.20;;;;;;8395731;28;19912;-80
2023/06/14 12:48:58;;;;;;;;;;;27.20;48.70;;;;;;8414486;28;19928;-78
2023/06/14 12:52:58;;;;;;;;;;;29.40;46.70;;;;;;8407001;28;19916;-79
2023/06/14 12:56:59;;;;;;;;;;;32.40;43.90;;;;;;8410335;28;19908;-79
2023/06/14 13:01:00;;;;;;;;;;;34.00;40.90;;;;;;8403857;28;19931;-78
2023/06/14 13:05:00;;;;;;;;;;;31.80;42.30;;;;;;8383697;28;19912;-79
2023/06/14 13:09:01;;;;;;;;;;;29.00;45.60;;;;;;8389789;28;19912;-79
2023/06/14 13:13:02;;;;;;;;;;;27.80;48.10;;;;;;8400688;28;19916;-78
2023/06/14 13:17:03;;;;;;;;;;;29.80;46.20;;;;;;8411728;28;20043;-80
2023/06/14 13:21:03;;;;;;;;;;;31.00;45.20;;;;;;8411769;28;20192;-78
2023/06/14 13:25:04;;;;;;;;;;;30.40;46.20;;;;;;8383490;28;19912;-79
2023/06/14 13:29:04;;;;;;;;;;;31.00;45.80;;;;;;8384646;28;19913;-79
2023/06/14 13:33:05;;;;;;;;;;;31.30;42.00;;;;;;8394354;28;19916;-78
2023/06/14 13:37:06;;;;;;;;;;;29.50;45.40;;;;;;8381605;28;19912;-78
2023/06/14 13:41:06;;;;;;;;;;;27.50;48.90;;;;;;8405799;28;19956;-79
2023/06/14 13:45:07;;;;;;;;;;;30.50;44.10;;;;;;8414918;28;19954;-78
2023/06/14 13:49:08;;;;;;;;;;;31.10;43.50;;;;;;8413325;28;19919;-78
2023/06/14 13:53:09;;;;;;;;;;;32.00;42.60;;;;;;8391254;28;20177;-79
2023/06/14 13:57:12;;;;;;;;;;;33.30;39.40;;;;;;8391554;28;20296;-78
2023/06/14 14:01:13;;;;;;;;;;;32.10;41.50;;;;;;8403443;28;19930;-79
2023/06/14 14:05:13;;;;;;;;;;;33.70;41.30;;;;;;8396125;28;19984;-79
2023/06/14 14:09:14;;;;;;;;;;;34.20;38.50;;;;;;8369050;28;19912;-77
2023/06/14 14:13:14;;;;;;;;;;;33.70;39.60;;;;;;8391546;28;19916;-79
2023/06/14 14:17:15;;;;;;;;;;;31.50;42.70;;;;;;8394599;28;19923;-77
2023/06/14 14:21:15;;;;;;;;;;;31.50;41.00;;;;;;8415648;28;19912;-77
2023/06/14 14:25:16;;;;;;;;;;;29.60;44.10;;;;;;8399387;28;19936;-78
2023/06/14 14:29:16;;;;;;;;;;;29.30;44.50;;;;;;8367638;28;19958;-78
2023/06/14 14:33:17;;;;;;;;;;;32.00;42.70;;;;;;8396447;28;19942;-78
2023/06/14 14:37:17;;;;;;;;;;;33.30;39.30;;;;;;8374809;28;19920;-78
2023/06/14 14:41:18;;;;;;;;;;;28.40;45.20;;;;;;8356179;28;20304;-78
2023/06/14 14:45:18;;;;;;;;;;;26.90;47.80;;;;;;8353338;28;19932;-77
2023/06/14 14:49:20;;;;;;;;;;;28.60;45.90;;;;;;8392113;28;19908;-78
2023/06/14 14:53:20;;;;;;;;;;;28.90;44.70;;;;;;8413439;28;19919;-78
2023/06/14 14:57:21;;;;;;;;;;;30.60;44.90;;;;;;8400969;28;20015;-78
2023/06/14 15:01:21;;;;;;;;;;;30.10;44.50;;;;;;8384285;28;20433;-78
2023/06/14 15:05:22;;;;;;;;;;;29.60;44.40;;;;;;8377087;28;19908;-78
2023/06/14 15:09:22;;;;;;;;;;;32.00;43.00;;;;;;8389610;28;19913;-79
2023/06/14 15:13:23;;;;;;;;;;;33.20;39.30;;;;;;8400622;28;19973;-77
2023/06/14 15:17:24;;;;;;;;;;;31.30;42.90;;;;;;8417304;28;20011;-79
2023/06/14 15:21:25;;;;;;;;;;;30.60;42.90;;;;;;8414090;28;19912;-79
2023/06/14 15:25:29;;;;;;;;;;;30.10;44.30;;;;;;8401319;28;19998;-78
2023/06/14 15:29:29;;;;;;;;;;;27.20;46.20;;;;;;8409700;28;19908;-79
2023/06/14 15:33:30;;;;;;;;;;;24.90;52.30;;;;;;8421810;28;19922;-77
2023/06/14 15:37:30;;;;;;;;;;;24.10;53.00;;;;;;8417034;28;19908;-79
2023/06/14 15:41:30;;;;;;;;;;;24.20;52.00;;;;;;8375447;28;19919;-77
2023/06/14 15:45:31;;;;;;;;;;;24.90;51.90;;;;;;8411585;28;19999;-77
2023/06/14 15:49:31;;;;;;;;;;;24.50;52.10;;;;;;8389968;28;19912;-77
2023/06/14 15:53:34;;;;;;;;;;;23.90;53.10;;;;;;8384074;28;19916;-77
2023/06/14 15:57:34;;;;;;;;;;;23.70;55.80;;;;;;8358948;28;19916;-76
2023/06/14 16:01:36;;;;;;;;;;;23.70;54.90;;;;;;8397172;28;20545;-79
2023/06/14 16:05:36;;;;;;;;;;;23.70;54.20;;;;;;8359014;28;20377;-78
2023/06/14 16:09:37;;;;;;;;;;;23.90;55.00;;;;;;8386895;28;19954;-76
2023/06/14 16:13:38;;;;;;;;;;;24.40;54.60;;;;;;8359425;28;19916;-77
2023/06/14 16:17:39;;;;;;;;;;;24.90;52.60;;;;;;8406660;28;19912;-77
2023/06/14 16:21:39;;;;;;;;;;;25.30;52.60;;;;;;8416403;28;19977;-76
2023/06/14 16:25:40;;;;;;;;;;;25.50;50.40;;;;;;8390328;28;19912;-77
2023/06/14 16:29:40;;;;;;;;;;;24.90;51.00;;;;;;8389705;28;20384;-77
2023/06/14 16:33:41;;;;;;;;;;;24.70;50.60;;;;;;8377344;28;20011;-77
2023/06/14 16:37:41;;;;;;;;;;;24.60;52.30;;;;;;8358366;28;19919;-79
2023/06/14 16:41:41;;;;;;;;;;;24.50;52.80;;;;;;8368766;28;19970;-78
2023/06/14 16:45:42;;;;;;;;;;;24.60;52.90;;;;;;8360301;28;20335;-78
2023/06/14 16:49:42;;;;;;;;;;;24.30;52.50;;;;;;8359234;28;19917;-77
2023/06/14 16:53:43;;;;;;;;;;;24.10;53.70;;;;;;8356671;28;19978;-77
2023/06/14 16:57:43;;;;;;;;;;;24.00;55.30;;;;;;8382006;28;19919;-77
2023/06/14 17:01:44;;;;;;;;;;;24.00;53.50;;;;;;8353989;28;19920;-78
2023/06/14 17:05:56;;;;;;;;;;;23.90;53.70;;;;;;8360569;28;20015;-77
2023/06/14 17:09:57;;;;;;;;;;;23.20;54.60;;;;;;8371584;28;19912;-76
2023/06/14 17:13:57;;;;;;;;;;;22.90;54.70;;;;;;8368963;28;19969;-76
2023/06/14 17:17:58;;;;;;;;;;;22.70;56.30;;;;;;8372535;28;20009;-77
2023/06/14 17:21:58;;;;;;;;;;;22.50;56.40;;;;;;8355445;28;20377;-77
2023/06/14 17:25:59;;;;;;;;;;;22.50;58.10;;;;;;8357244;28;20020;-77
2023/06/14 17:30:00;;;;;;;;;;;22.10;57.60;;;;;;8399689;28;19912;-77
2023/06/14 17:34:00;;;;;;;;;;;22.00;59.00;;;;;;8364638;28;19979;-78
2023/06/14 17:38:00;;;;;;;;;;;21.90;58.50;;;;;;8371535;28;20003;-76
2023/06/14 17:42:03;;;;;;;;;;;22.10;58.70;;;;;;8365012;28;20281;-77
2023/06/14 17:46:04;;;;;;;;;;;21.60;59.20;;;;;;8378993;28;20394;-77
2023/06/14 17:50:05;;;;;;;;;;;21.60;60.00;;;;;;8376984;28;19920;-77
2023/06/14 17:54:05;;;;;;;;;;;21.30;62.10;;;;;;8378762;28;20010;-76
2023/06/14 17:58:06;;;;;;;;;;;21.20;60.20;;;;;;8387121;28;19942;-76
2023/06/14 18:02:07;;;;;;;;;;;21.20;60.10;;;;;;8408058;28;20037;-77
2023/06/14 18:06:08;;;;;;;;;;;21.10;60.80;;;;;;8369940;28;19913;-77
2023/06/14 18:10:08;;;;;;;;;;;21.10;60.90;;;;;;8408533;28;20308;-76
2023/06/14 18:18:13;;;;;;;;;;;20.80;61.90;;;;;;8392355;28;19988;-78
2023/06/14 18:22:13;;;;;;;;;;;20.50;63.00;;;;;;8356520;28;19924;-78
2023/06/14 18:26:14;;;;;;;;;;;20.50;62.40;;;;;;8334390;28;19919;-76
2023/06/14 18:30:15;;;;;;;;;;;20.20;64.20;;;;;;8351553;28;20009;-76
2023/06/14 18:34:16;;;;;;;;;;;19.80;64.70;;;;;;8334560;28;19921;-77
2023/06/14 18:38:16;;;;;;;;;;;20.00;64.70;;;;;;8334126;28;20404;-77
2023/06/14 18:42:17;;;;;;;;;;;20.00;65.90;;;;;;8340040;28;19913;-77
2023/06/14 18:46:17;;;;;;;;;;;19.70;67.60;;;;;;8321839;28;19922;-77
2023/06/14 18:50:18;;;;;;;;;;;19.50;69.50;;;;;;8324008;28;19939;-77
2023/06/14 18:54:18;;;;;;;;;;;19.60;71.70;;;;;;8344747;28;19963;-77
2023/06/14 18:58:19;;;;;;;;;;;19.00;71.50;;;;;;8344491;28;19913;-77
2023/06/14 19:02:19;;;;;;;;;;;18.60;73.50;;;;;;8348405;28;19955;-77
2023/06/14 19:06:22;;;;;;;;;;;18.40;74.90;;;;;;8331985;28;19920;-76
2023/06/14 19:10:23;;;;;;;;;;;17.50;77.60;;;;;;8332543;28;19916;-77
2023/06/14 19:14:23;;;;;;;;;;;17.40;79.90;;;;;;8327988;28;19944;-78
2023/06/14 19:18:24;;;;;;;;;;;17.10;81.70;;;;;;8348543;28;19913;-77
2023/06/14 19:22:24;;;;;;;;;;;16.80;82.90;;;;;;8323938;28;20404;-77
2023/06/14 19:26:25;;;;;;;;;;;16.50;84.10;;;;;;8340866;28;19954;-77
2023/06/14 19:30:26;;;;;;;;;;;16.30;85.60;;;;;;8321738;28;19916;-79
2023/06/14 19:34:26;;;;;;;;;;;16.00;87.80;;;;;;8329095;28;19921;-77
2023/06/14 19:38:27;;;;;;;;;;;15.90;88.90;;;;;;8327199;28;20293;-77
2023/06/14 19:42:27;;;;;;;;;;;15.70;90.50;;;;;;8331334;28;20348;-76
2023/06/14 19:46:28;;;;;;;;;;;15.50;91.30;;;;;;8351698;28;19913;-76
2023/06/14 19:50:28;;;;;;;;;;;15.50;91.80;;;;;;8362328;28;19961;-77
2023/06/14 19:54:29;;;;;;;;;;;15.40;91.40;;;;;;8333111;28;19917;-77
2023/06/14 19:58:29;;;;;;;;;;;15.40;92.50;;;;;;8327524;28;19984;-77
2023/06/14 20:02:30;;;;;;;;;;;15.20;92.40;;;;;;8330687;28;19908;-76
2023/06/14 20:06:30;;;;;;;;;;;15.00;93.50;;;;;;8320886;28;19951;-77
2023/06/14 20:10:31;;;;;;;;;;;14.80;94.20;;;;;;8333142;28;19916;-77
2023/06/14 20:14:31;;;;;;;;;;;14.70;95.10;;;;;;8337020;28;19917;-77
2023/06/14 20:18:32;;;;;;;;;;;14.30;96.30;;;;;;8356006;28;19912;-77
2023/06/14 20:22:37;;;;;;;;;;;14.30;96.90;;;;;;8347472;28;19913;-76
2023/06/14 20:26:37;;;;;;;;;;;14.30;97.60;;;;;;8328280;28;19948;-76
2023/06/14 20:30:38;;;;;;;;;;;14.30;97.90;;;;;;8348657;28;19913;-77
2023/06/14 20:34:38;;;;;;;;;;;14.50;98.80;;;;;;8343621;28;19913;-76
2023/06/14 20:38:39;;;;;;;;;;;14.90;98.70;;;;;;8328822;28;19913;-77
2023/06/14 20:42:39;;;;;;;;;;;14.70;99.30;;;;;;8345612;28;19909;-77
2023/06/14 20:46:42;;;;;;;;;;;14.40;99.90;;;;;;8327760;28;19913;-76
2023/06/14 20:50:42;;;;;;;;;;;14.10;99.90;;;;;;8332288;28;19920;-76
2023/06/14 20:54:44;;;;;;;;;;;14.00;99.90;;;;;;8353645;28;20609;-77
2023/06/14 20:58:45;;;;;;;;;;;14.30;99.90;;;;;;8337067;28;19988;-77
2023/06/14 21:02:45;;;;;;;;;;;14.20;99.90;;;;;;8337254;28;20381;-77
2023/06/14 21:06:46;;;;;;;;;;;14.00;99.90;;;;;;8352555;28;19924;-76
2023/06/14 21:10:46;;;;;;;;;;;13.50;99.90;;;;;;8333230;28;19909;-76
2023/06/14 21:14:47;;;;;;;;;;;13.30;99.90;;;;;;8338557;28;20463;-76
2023/06/14 21:18:47;;;;;;;;;;;13.30;99.90;;;;;;8336239;28;19917;-76
2023/06/14 21:22:47;;;;;;;;;;;13.00;99.90;;;;;;8348400;28;19967;-76
2023/06/14 21:26:49;;;;;;;;;;;12.70;99.90;;;;;;8346244;28;19920;-76
2023/06/14 21:30:49;;;;;;;;;;;12.40;99.90;;;;;;8323107;28;20470;-77
2023/06/14 21:34:49;;;;;;;;;;;12.30;99.90;;;;;;8330785;28;19924;-75
2023/06/14 21:38:50;;;;;;;;;;;12.30;99.90;;;;;;8362693;28;19992;-76
2023/06/14 21:42:50;;;;;;;;;;;12.30;99.90;;;;;;8368880;28;19909;-76
2023/06/14 21:46:51;;;;;;;;;;;12.60;99.90;;;;;;8329173;28;19923;-76
2023/06/14 21:50:52;;;;;;;;;;;12.70;99.90;;;;;;8344826;28;19917;-76
2023/06/14 21:54:56;;;;;;;;;;;12.40;99.90;;;;;;8344169;28;19917;-76
2023/06/14 21:58:56;;;;;;;;;;;11.90;99.90;;;;;;8329485;28;20007;-76
2023/06/14 22:02:57;;;;;;;;;;;11.50;99.90;;;;;;8365952;28;20419;-76
2023/06/14 22:06:58;;;;;;;;;;;11.50;99.90;;;;;;8345835;28;19952;-76
2023/06/14 22:11:01;;;;;;;;;;;11.50;99.90;;;;;;8351329;28;19913;-76
2023/06/14 22:15:04;;;;;;;;;;;11.50;99.90;;;;;;8326275;28;19951;-76
2023/06/14 22:19:06;;;;;;;;;;;11.40;99.90;;;;;;8347926;28;20363;-77
2023/06/14 22:23:07;;;;;;;;;;;11.50;99.90;;;;;;8330125;28;20460;-77
2023/06/14 22:27:09;;;;;;;;;;;11.50;99.90;;;;;;8329352;28;20397;-76
2023/06/14 22:31:10;;;;;;;;;;;11.30;99.90;;;;;;8328018;28;19995;-76
2023/06/14 22:35:10;;;;;;;;;;;10.90;99.90;;;;;;8337355;28;20304;-76
2023/06/14 22:39:11;;;;;;;;;;;11.00;99.90;;;;;;8347362;28;19913;-76
2023/06/14 22:43:12;;;;;;;;;;;10.90;99.90;;;;;;8339548;28;19920;-76
2023/06/14 22:47:20;;;;;;;;;;;10.90;99.90;;;;;;8325942;28;19988;-76
2023/06/14 22:51:21;;;;;;;;;;;10.50;99.90;;;;;;8351481;28;19962;-77
2023/06/14 22:55:25;;;;;;;;;;;10.20;99.90;;;;;;8333403;28;20385;-76
2023/06/14 22:59:27;;;;;;;;;;;10.10;99.90;;;;;;8366485;28;20308;-76
2023/06/14 23:03:28;;;;;;;;;;;9.90;99.90;;;;;;8324587;28;19913;-76
2023/06/14 23:07:29;;;;;;;;;;;10.00;99.90;;;;;;8332067;28;19913;-77
2023/06/14 23:11:30;;;;;;;;;;;10.10;99.90;;;;;;8328430;28;20369;-77
2023/06/14 23:15:31;;;;;;;;;;;10.40;99.90;;;;;;8330252;28;20293;-76
2023/06/14 23:19:32;;;;;;;;;;;10.50;99.90;;;;;;8358674;28;19924;-75
2023/06/14 23:23:36;;;;;;;;;;;10.40;99.90;;;;;;8349990;28;19916;-76
2023/06/14 23:27:37;;;;;;;;;;;10.00;99.90;;;;;;8327321;28;19916;-76
2023/06/14 23:31:38;;;;;;;;;;;9.70;99.90;;;;;;8337954;28;19919;-76
2023/06/14 23:35:40;;;;;;;;;;;9.70;99.90;;;;;;8356110;28;19912;-75